sensor_id;sensor_type;location;lat;lon;timestamp;P1;durP1;ratioP1;P2;durP2;ratioP2
18162;SDS011;9206;50.994;4.538;2024-01-15T00:01:48;20.50;;;12.07;;
18162;SDS011;9206;50.994;4.538;2024-01-15T00:10:16;26.07;;;12.77;;
18162;SDS011;9206;50.994;4.538;2024-01-15T00:13:05;20.77;;;12.30;;
18162;SDS011;9206;50.994;4.538;2024-01-15T00:15:52;20.97;;;11.20;;
18162;SDS011;9206;50.994;4.538;2024-01-15T00:18:41;22.43;;;12.27;;
18162;SDS011;9206;50.994;4.538;2024-01-15T00:21:30;21.93;;;11.83;;
18162;SDS011;9206;50.994;4.538;2024-01-15T00:24:20;20.90;;;11.97;;
18162;SDS011;9206;50.994;4.538;2024-01-15T00:27:08;19.70;;;12.07;;
18162;SDS011;9206;50.994;4.538;2024-01-15T00:29:55;22.57;;;12.27;;
18162;SDS011;9206;50.994;4.538;2024-01-15T00:35:38;14.60;;;10.87;;
18162;SDS011;9206;50.994;4.538;2024-01-15T00:38:26;14.03;;;9.77;;
18162;SDS011;9206;50.994;4.538;2024-01-15T00:41:16;13.87;;;9.10;;
18162;SDS011;9206;50.994;4.538;2024-01-15T00:44:04;10.77;;;8.10;;
18162;SDS011;9206;50.994;4.538;2024-01-15T00:47:01;19.03;;;9.47;;
18162;SDS011;9206;50.994;4.538;2024-01-15T00:55:42;11.67;;;8.87;;
18162;SDS011;9206;50.994;4.538;2024-01-15T01:01:21;12.53;;;9.17;;
18162;SDS011;9206;50.994;4.538;2024-01-15T01:04:10;14.97;;;8.80;;
18162;SDS011;9206;50.994;4.538;2024-01-15T01:06:59;11.13;;;8.27;;
18162;SDS011;9206;50.994;4.538;2024-01-15T01:09:52;13.37;;;8.53;;
18162;SDS011;9206;50.994;4.538;2024-01-15T01:12:40;13.00;;;9.07;;
18162;SDS011;9206;50.994;4.538;2024-01-15T01:15:33;12.33;;;8.90;;
18162;SDS011;9206;50.994;4.538;2024-01-15T01:18:20;12.20;;;9.17;;
18162;SDS011;9206;50.994;4.538;2024-01-15T01:21:09;15.57;;;9.37;;
18162;SDS011;9206;50.994;4.538;2024-01-15T01:23:57;13.17;;;9.30;;
18162;SDS011;9206;50.994;4.538;2024-01-15T01:26:49;15.50;;;9.40;;
18162;SDS011;9206;50.994;4.538;2024-01-15T01:29:36;11.50;;;8.67;;
18162;SDS011;9206;50.994;4.538;2024-01-15T01:32:23;10.63;;;7.83;;
18162;SDS011;9206;50.994;4.538;2024-01-15T01:35:10;8.70;;;7.50;;
18162;SDS011;9206;50.994;4.538;2024-01-15T01:37:59;10.63;;;7.37;;
18162;SDS011;9206;50.994;4.538;2024-01-15T01:40:49;12.53;;;7.70;;
18162;SDS011;9206;50.994;4.538;2024-01-15T01:43:37;8.00;;;6.83;;
18162;SDS011;9206;50.994;4.538;2024-01-15T01:46:26;10.97;;;6.97;;
18162;SDS011;9206;50.994;4.538;2024-01-15T01:49:15;7.30;;;6.60;;
18162;SDS011;9206;50.994;4.538;2024-01-15T01:52:09;8.00;;;6.13;;
18162;SDS011;9206;50.994;4.538;2024-01-15T01:55:00;7.10;;;6.40;;
18162;SDS011;9206;50.994;4.538;2024-01-15T02:03:36;9.50;;;6.47;;
18162;SDS011;9206;50.994;4.538;2024-01-15T02:06:30;9.33;;;6.37;;
18162;SDS011;9206;50.994;4.538;2024-01-15T02:09:30;7.03;;;6.33;;
18162;SDS011;9206;50.994;4.538;2024-01-15T02:12:18;6.47;;;5.87;;
18162;SDS011;9206;50.994;4.538;2024-01-15T02:15:06;5.27;;;4.60;;
18162;SDS011;9206;50.994;4.538;2024-01-15T02:18:01;4.70;;;4.30;;
18162;SDS011;9206;50.994;4.538;2024-01-15T02:20:49;6.93;;;4.37;;
18162;SDS011;9206;50.994;4.538;2024-01-15T02:23:38;6.27;;;4.40;;
18162;SDS011;9206;50.994;4.538;2024-01-15T02:26:28;8.30;;;4.30;;
18162;SDS011;9206;50.994;4.538;2024-01-15T02:29:21;4.37;;;3.50;;
18162;SDS011;9206;50.994;4.538;2024-01-15T02:32:08;6.40;;;4.03;;
18162;SDS011;9206;50.994;4.538;2024-01-15T02:34:56;3.83;;;3.60;;
18162;SDS011;9206;50.994;4.538;2024-01-15T02:40:35;8.53;;;3.80;;
18162;SDS011;9206;50.994;4.538;2024-01-15T02:43:31;8.73;;;4.20;;
18162;SDS011;9206;50.994;4.538;2024-01-15T02:49:08;4.57;;;4.17;;
18162;SDS011;9206;50.994;4.538;2024-01-15T02:51:56;4.77;;;4.40;;
18162;SDS011;9206;50.994;4.538;2024-01-15T02:54:45;5.10;;;4.70;;
18162;SDS011;9206;50.994;4.538;2024-01-15T02:57:33;8.73;;;4.60;;
18162;SDS011;9206;50.994;4.538;2024-01-15T03:03:13;5.57;;;5.07;;
18162;SDS011;9206;50.994;4.538;2024-01-15T03:06:01;5.93;;;4.93;;
18162;SDS011;9206;50.994;4.538;2024-01-15T03:08:52;6.43;;;4.53;;
18162;SDS011;9206;50.994;4.538;2024-01-15T03:11:39;6.43;;;4.73;;
18162;SDS011;9206;50.994;4.538;2024-01-15T03:17:24;8.37;;;4.40;;
18162;SDS011;9206;50.994;4.538;2024-01-15T03:20:13;9.53;;;4.90;;
18162;SDS011;9206;50.994;4.538;2024-01-15T03:25:50;4.33;;;4.00;;
18162;SDS011;9206;50.994;4.538;2024-01-15T03:28:40;6.87;;;4.30;;
18162;SDS011;9206;50.994;4.538;2024-01-15T03:31:30;4.80;;;3.97;;
18162;SDS011;9206;50.994;4.538;2024-01-15T03:34:17;4.17;;;3.77;;
18162;SDS011;9206;50.994;4.538;2024-01-15T03:37:06;4.10;;;3.90;;
18162;SDS011;9206;50.994;4.538;2024-01-15T03:39:53;4.00;;;3.70;;
18162;SDS011;9206;50.994;4.538;2024-01-15T03:42:42;3.83;;;3.50;;
18162;SDS011;9206;50.994;4.538;2024-01-15T03:45:30;5.17;;;3.77;;
18162;SDS011;9206;50.994;4.538;2024-01-15T03:48:19;8.13;;;3.77;;
18162;SDS011;9206;50.994;4.538;2024-01-15T03:56:49;4.27;;;3.97;;
18162;SDS011;9206;50.994;4.538;2024-01-15T03:59:40;6.33;;;3.93;;
18162;SDS011;9206;50.994;4.538;2024-01-15T04:02:29;6.30;;;4.03;;
18162;SDS011;9206;50.994;4.538;2024-01-15T04:05:20;8.63;;;5.33;;
18162;SDS011;9206;50.994;4.538;2024-01-15T04:08:11;8.63;;;4.43;;
18162;SDS011;9206;50.994;4.538;2024-01-15T04:10:58;4.90;;;4.60;;
18162;SDS011;9206;50.994;4.538;2024-01-15T04:13:46;4.80;;;4.40;;
18162;SDS011;9206;50.994;4.538;2024-01-15T04:16:34;7.00;;;4.03;;
18162;SDS011;9206;50.994;4.538;2024-01-15T04:19:23;4.30;;;3.93;;
18162;SDS011;9206;50.994;4.538;2024-01-15T04:22:12;7.00;;;4.47;;
18162;SDS011;9206;50.994;4.538;2024-01-15T04:27:52;7.40;;;5.60;;
18162;SDS011;9206;50.994;4.538;2024-01-15T04:30:43;5.87;;;5.27;;
18162;SDS011;9206;50.994;4.538;2024-01-15T04:33:33;6.67;;;5.70;;
18162;SDS011;9206;50.994;4.538;2024-01-15T04:36:21;8.57;;;5.60;;
18162;SDS011;9206;50.994;4.538;2024-01-15T04:39:10;6.30;;;5.70;;
18162;SDS011;9206;50.994;4.538;2024-01-15T04:47:38;10.33;;;6.63;;
18162;SDS011;9206;50.994;4.538;2024-01-15T04:50:28;6.93;;;6.27;;
18162;SDS011;9206;50.994;4.538;2024-01-15T04:53:16;7.73;;;5.80;;
18162;SDS011;9206;50.994;4.538;2024-01-15T04:56:05;7.27;;;6.30;;
18162;SDS011;9206;50.994;4.538;2024-01-15T04:58:53;8.37;;;5.87;;
18162;SDS011;9206;50.994;4.538;2024-01-15T05:01:46;7.50;;;6.73;;
18162;SDS011;9206;50.994;4.538;2024-01-15T05:04:34;7.50;;;5.97;;
18162;SDS011;9206;50.994;4.538;2024-01-15T05:07:22;12.07;;;6.33;;
18162;SDS011;9206;50.994;4.538;2024-01-15T05:13:01;7.07;;;6.40;;
18162;SDS011;9206;50.994;4.538;2024-01-15T05:15:50;7.80;;;6.20;;
18162;SDS011;9206;50.994;4.538;2024-01-15T05:18:37;8.10;;;5.83;;
18162;SDS011;9206;50.994;4.538;2024-01-15T05:21:27;10.33;;;6.27;;
18162;SDS011;9206;50.994;4.538;2024-01-15T05:24:17;9.00;;;6.23;;
18162;SDS011;9206;50.994;4.538;2024-01-15T05:27:04;9.60;;;6.13;;
18162;SDS011;9206;50.994;4.538;2024-01-15T05:29:54;7.07;;;5.90;;
18162;SDS011;9206;50.994;4.538;2024-01-15T05:32:42;15.70;;;6.57;;
18162;SDS011;9206;50.994;4.538;2024-01-15T05:35:29;9.57;;;5.90;;
18162;SDS011;9206;50.994;4.538;2024-01-15T05:38:19;12.37;;;5.03;;
18162;SDS011;9206;50.994;4.538;2024-01-15T05:41:08;13.27;;;5.60;;
18162;SDS011;9206;50.994;4.538;2024-01-15T05:46:49;5.73;;;4.20;;
18162;SDS011;9206;50.994;4.538;2024-01-15T05:49:36;7.93;;;4.20;;
18162;SDS011;9206;50.994;4.538;2024-01-15T05:52:26;7.53;;;4.23;;
18162;SDS011;9206;50.994;4.538;2024-01-15T05:57:44;7.03;;;3.47;;
18162;SDS011;9206;50.994;4.538;2024-01-15T06:00:42;9.47;;;3.93;;
18162;SDS011;9206;50.994;4.538;2024-01-15T06:03:54;10.40;;;4.50;;
18162;SDS011;9206;50.994;4.538;2024-01-15T06:06:42;8.97;;;2.83;;
18162;SDS011;9206;50.994;4.538;2024-01-15T06:09:29;9.10;;;3.67;;
18162;SDS011;9206;50.994;4.538;2024-01-15T06:15:09;7.77;;;3.27;;
18162;SDS011;9206;50.994;4.538;2024-01-15T06:17:57;4.07;;;3.20;;
18162;SDS011;9206;50.994;4.538;2024-01-15T06:20:48;8.27;;;2.80;;
18162;SDS011;9206;50.994;4.538;2024-01-15T06:23:39;7.53;;;2.90;;
18162;SDS011;9206;50.994;4.538;2024-01-15T06:26:27;8.33;;;2.43;;
18162;SDS011;9206;50.994;4.538;2024-01-15T06:29:25;9.03;;;2.90;;
18162;SDS011;9206;50.994;4.538;2024-01-15T06:32:16;9.90;;;3.33;;
18162;SDS011;9206;50.994;4.538;2024-01-15T06:38:23;8.50;;;3.13;;
18162;SDS011;9206;50.994;4.538;2024-01-15T06:41:12;7.23;;;2.73;;
18162;SDS011;9206;50.994;4.538;2024-01-15T06:44:01;10.40;;;3.33;;
18162;SDS011;9206;50.994;4.538;2024-01-15T06:46:51;6.27;;;3.23;;
18162;SDS011;9206;50.994;4.538;2024-01-15T06:49:42;7.57;;;3.03;;
18162;SDS011;9206;50.994;4.538;2024-01-15T06:52:29;3.13;;;2.57;;
18162;SDS011;9206;50.994;4.538;2024-01-15T06:55:20;8.13;;;2.37;;
18162;SDS011;9206;50.994;4.538;2024-01-15T07:01:00;5.03;;;3.20;;
18162;SDS011;9206;50.994;4.538;2024-01-15T07:03:51;11.27;;;3.17;;
18162;SDS011;9206;50.994;4.538;2024-01-15T07:06:40;7.37;;;2.73;;
18162;SDS011;9206;50.994;4.538;2024-01-15T07:09:30;5.57;;;2.27;;
18162;SDS011;9206;50.994;4.538;2024-01-15T07:12:19;4.87;;;2.50;;
18162;SDS011;9206;50.994;4.538;2024-01-15T07:15:06;8.60;;;2.60;;
18162;SDS011;9206;50.994;4.538;2024-01-15T07:17:54;3.90;;;2.50;;
18162;SDS011;9206;50.994;4.538;2024-01-15T07:20:46;7.30;;;2.93;;
18162;SDS011;9206;50.994;4.538;2024-01-15T07:24:04;10.07;;;2.83;;
18162;SDS011;9206;50.994;4.538;2024-01-15T07:27:00;5.00;;;2.10;;
18162;SDS011;9206;50.994;4.538;2024-01-15T07:29:51;5.47;;;2.13;;
18162;SDS011;9206;50.994;4.538;2024-01-15T07:32:45;5.87;;;2.30;;
18162;SDS011;9206;50.994;4.538;2024-01-15T07:46:20;6.53;;;2.43;;
18162;SDS011;9206;50.994;4.538;2024-01-15T07:54:52;7.37;;;2.30;;
18162;SDS011;9206;50.994;4.538;2024-01-15T08:00:34;6.20;;;2.27;;
18162;SDS011;9206;50.994;4.538;2024-01-15T08:03:24;5.70;;;2.20;;
18162;SDS011;9206;50.994;4.538;2024-01-15T08:06:38;5.70;;;2.20;;
18162;SDS011;9206;50.994;4.538;2024-01-15T08:09:24;9.27;;;2.50;;
18162;SDS011;9206;50.994;4.538;2024-01-15T08:12:13;4.23;;;2.53;;
18162;SDS011;9206;50.994;4.538;2024-01-15T08:18:03;6.77;;;2.43;;
18162;SDS011;9206;50.994;4.538;2024-01-15T08:20:54;2.87;;;2.13;;
18162;SDS011;9206;50.994;4.538;2024-01-15T08:23:42;5.63;;;2.30;;
18162;SDS011;9206;50.994;4.538;2024-01-15T08:26:32;3.60;;;2.10;;
18162;SDS011;9206;50.994;4.538;2024-01-15T08:29:25;5.60;;;2.33;;
18162;SDS011;9206;50.994;4.538;2024-01-15T08:32:16;6.70;;;2.87;;
18162;SDS011;9206;50.994;4.538;2024-01-15T08:42:21;4.13;;;2.50;;
18162;SDS011;9206;50.994;4.538;2024-01-15T08:47:31;5.67;;;2.30;;
18162;SDS011;9206;50.994;4.538;2024-01-15T08:52:50;5.13;;;2.63;;
18162;SDS011;9206;50.994;4.538;2024-01-15T08:56:02;3.83;;;2.60;;
18162;SDS011;9206;50.994;4.538;2024-01-15T08:58:53;6.90;;;2.67;;
18162;SDS011;9206;50.994;4.538;2024-01-15T09:01:41;5.93;;;2.40;;
18162;SDS011;9206;50.994;4.538;2024-01-15T09:04:35;6.97;;;2.43;;
18162;SDS011;9206;50.994;4.538;2024-01-15T09:07:23;5.67;;;2.27;;
18162;SDS011;9206;50.994;4.538;2024-01-15T09:10:12;3.50;;;2.27;;
18162;SDS011;9206;50.994;4.538;2024-01-15T09:13:01;5.17;;;2.10;;
18162;SDS011;9206;50.994;4.538;2024-01-15T09:15:50;4.97;;;2.20;;
18162;SDS011;9206;50.994;4.538;2024-01-15T09:18:38;3.30;;;2.80;;
18162;SDS011;9206;50.994;4.538;2024-01-15T09:21:31;7.67;;;2.80;;
18162;SDS011;9206;50.994;4.538;2024-01-15T09:24:19;4.67;;;2.30;;
18162;SDS011;9206;50.994;4.538;2024-01-15T09:27:07;6.60;;;2.03;;
18162;SDS011;9206;50.994;4.538;2024-01-15T09:30:00;5.27;;;2.13;;
18162;SDS011;9206;50.994;4.538;2024-01-15T09:35:34;8.13;;;2.30;;
18162;SDS011;9206;50.994;4.538;2024-01-15T09:38:24;4.30;;;1.87;;
18162;SDS011;9206;50.994;4.538;2024-01-15T09:41:15;6.53;;;2.83;;
18162;SDS011;9206;50.994;4.538;2024-01-15T09:44:06;2.93;;;1.80;;
18162;SDS011;9206;50.994;4.538;2024-01-15T09:47:03;3.47;;;2.17;;
18162;SDS011;9206;50.994;4.538;2024-01-15T09:53:39;3.20;;;1.80;;
18162;SDS011;9206;50.994;4.538;2024-01-15T09:56:31;3.37;;;1.90;;
18162;SDS011;9206;50.994;4.538;2024-01-15T10:02:16;5.10;;;2.10;;
18162;SDS011;9206;50.994;4.538;2024-01-15T10:05:06;3.13;;;2.00;;
18162;SDS011;9206;50.994;4.538;2024-01-15T10:07:56;2.20;;;1.60;;
18162;SDS011;9206;50.994;4.538;2024-01-15T10:10:45;5.50;;;1.90;;
18162;SDS011;9206;50.994;4.538;2024-01-15T10:13:33;7.47;;;2.17;;
18162;SDS011;9206;50.994;4.538;2024-01-15T10:16:25;2.17;;;1.90;;
18162;SDS011;9206;50.994;4.538;2024-01-15T10:21:49;3.38;;;1.73;;
18162;SDS011;9206;50.994;4.538;2024-01-15T10:24:36;4.40;;;2.00;;
18162;SDS011;9206;50.994;4.538;2024-01-15T10:27:25;2.03;;;1.80;;
18162;SDS011;9206;50.994;4.538;2024-01-15T10:30:13;3.23;;;1.93;;
18162;SDS011;9206;50.994;4.538;2024-01-15T10:33:05;4.47;;;1.83;;
18162;SDS011;9206;50.994;4.538;2024-01-15T10:35:56;3.27;;;1.87;;
18162;SDS011;9206;50.994;4.538;2024-01-15T10:38:50;6.37;;;2.23;;
18162;SDS011;9206;50.994;4.538;2024-01-15T10:41:43;2.30;;;2.00;;
18162;SDS011;9206;50.994;4.538;2024-01-15T10:44:32;5.07;;;2.00;;
18162;SDS011;9206;50.994;4.538;2024-01-15T10:47:22;5.27;;;2.13;;
18162;SDS011;9206;50.994;4.538;2024-01-15T10:53:02;3.50;;;2.23;;
18162;SDS011;9206;50.994;4.538;2024-01-15T10:55:54;2.13;;;2.03;;
18162;SDS011;9206;50.994;4.538;2024-01-15T10:58:44;5.53;;;2.13;;
18162;SDS011;9206;50.994;4.538;2024-01-15T11:01:32;6.03;;;2.70;;
18162;SDS011;9206;50.994;4.538;2024-01-15T11:04:20;6.63;;;2.50;;
18162;SDS011;9206;50.994;4.538;2024-01-15T11:07:11;5.10;;;2.20;;
18162;SDS011;9206;50.994;4.538;2024-01-15T11:10:03;4.40;;;2.60;;
18162;SDS011;9206;50.994;4.538;2024-01-15T11:12:53;8.93;;;2.20;;
18162;SDS011;9206;50.994;4.538;2024-01-15T11:19:07;5.67;;;2.10;;
18162;SDS011;9206;50.994;4.538;2024-01-15T11:24:45;6.70;;;2.00;;
18162;SDS011;9206;50.994;4.538;2024-01-15T11:27:46;7.83;;;2.37;;
18162;SDS011;9206;50.994;4.538;2024-01-15T11:30:43;4.63;;;2.30;;
18162;SDS011;9206;50.994;4.538;2024-01-15T11:37:04;8.20;;;2.53;;
18162;SDS011;9206;50.994;4.538;2024-01-15T11:39:52;9.07;;;1.90;;
18162;SDS011;9206;50.994;4.538;2024-01-15T11:42:50;5.23;;;2.17;;
18162;SDS011;9206;50.994;4.538;2024-01-15T11:45:46;5.33;;;1.63;;
18162;SDS011;9206;50.994;4.538;2024-01-15T11:51:34;9.43;;;2.57;;
18162;SDS011;9206;50.994;4.538;2024-01-15T11:54:22;6.00;;;1.67;;
18162;SDS011;9206;50.994;4.538;2024-01-15T11:57:15;6.77;;;1.80;;
18162;SDS011;9206;50.994;4.538;2024-01-15T12:00:44;6.50;;;1.80;;
18162;SDS011;9206;50.994;4.538;2024-01-15T12:04:00;3.20;;;1.63;;
18162;SDS011;9206;50.994;4.538;2024-01-15T12:07:03;5.33;;;1.77;;
18162;SDS011;9206;50.994;4.538;2024-01-15T12:09:53;4.40;;;1.50;;
18162;SDS011;9206;50.994;4.538;2024-01-15T12:33:11;3.63;;;1.87;;
18162;SDS011;9206;50.994;4.538;2024-01-15T12:36:01;4.40;;;1.97;;
18162;SDS011;9206;50.994;4.538;2024-01-15T12:53:46;6.97;;;1.97;;
18162;SDS011;9206;50.994;4.538;2024-01-15T12:56:33;3.67;;;1.67;;
18162;SDS011;9206;50.994;4.538;2024-01-15T12:59:28;7.33;;;2.00;;
18162;SDS011;9206;50.994;4.538;2024-01-15T13:02:36;5.20;;;1.60;;
18162;SDS011;9206;50.994;4.538;2024-01-15T13:23:28;1.27;;;1.17;;
18162;SDS011;9206;50.994;4.538;2024-01-15T13:49:25;1.10;;;1.10;;
18162;SDS011;9206;50.994;4.538;2024-01-15T13:55:56;1.37;;;1.10;;
18162;SDS011;9206;50.994;4.538;2024-01-15T13:56:10;0.90;;;0.90;;
18162;SDS011;9206;50.994;4.538;2024-01-15T15:39:12;9.07;;;2.10;;
18162;SDS011;9206;50.994;4.538;2024-01-15T15:42:04;4.03;;;1.90;;
18162;SDS011;9206;50.994;4.538;2024-01-15T15:44:59;5.50;;;2.00;;
18162;SDS011;9206;50.994;4.538;2024-01-15T15:48:13;5.30;;;2.10;;
18162;SDS011;9206;50.994;4.538;2024-01-15T15:51:56;7.00;;;2.40;;
18162;SDS011;9206;50.994;4.538;2024-01-15T15:55:11;5.43;;;2.60;;
18162;SDS011;9206;50.994;4.538;2024-01-15T15:58:12;9.90;;;2.83;;
18162;SDS011;9206;50.994;4.538;2024-01-15T16:04:35;4.83;;;2.43;;
18162;SDS011;9206;50.994;4.538;2024-01-15T16:07:31;6.57;;;2.30;;
18162;SDS011;9206;50.994;4.538;2024-01-15T16:10:32;7.73;;;2.20;;
18162;SDS011;9206;50.994;4.538;2024-01-15T16:13:40;4.60;;;2.17;;
18162;SDS011;9206;50.994;4.538;2024-01-15T16:16:32;7.33;;;2.93;;
18162;SDS011;9206;50.994;4.538;2024-01-15T16:25:25;3.13;;;2.20;;
18162;SDS011;9206;50.994;4.538;2024-01-15T16:28:33;9.23;;;2.90;;
18162;SDS011;9206;50.994;4.538;2024-01-15T16:31:24;3.83;;;2.47;;
18162;SDS011;9206;50.994;4.538;2024-01-15T16:34:14;11.00;;;2.77;;
18162;SDS011;9206;50.994;4.538;2024-01-15T16:37:01;5.40;;;2.83;;
18162;SDS011;9206;50.994;4.538;2024-01-15T16:42:47;7.13;;;2.87;;
18162;SDS011;9206;50.994;4.538;2024-01-15T16:45:45;5.40;;;2.60;;
18162;SDS011;9206;50.994;4.538;2024-01-15T16:48:35;5.43;;;2.80;;
18162;SDS011;9206;50.994;4.538;2024-01-15T16:51:24;12.33;;;3.07;;
18162;SDS011;9206;50.994;4.538;2024-01-15T16:54:13;9.13;;;2.90;;
18162;SDS011;9206;50.994;4.538;2024-01-15T16:57:09;8.03;;;3.20;;
18162;SDS011;9206;50.994;4.538;2024-01-15T16:59:57;7.03;;;2.77;;
18162;SDS011;9206;50.994;4.538;2024-01-15T17:16:14;6.53;;;3.70;;
18162;SDS011;9206;50.994;4.538;2024-01-15T17:19:03;7.00;;;4.10;;
18162;SDS011;9206;50.994;4.538;2024-01-15T17:21:55;11.30;;;3.87;;
18162;SDS011;9206;50.994;4.538;2024-01-15T17:24:43;9.13;;;3.30;;
18162;SDS011;9206;50.994;4.538;2024-01-15T17:27:31;3.30;;;3.10;;
18162;SDS011;9206;50.994;4.538;2024-01-15T17:30:21;3.80;;;3.40;;
18162;SDS011;9206;50.994;4.538;2024-01-15T17:33:11;4.73;;;3.47;;
18162;SDS011;9206;50.994;4.538;2024-01-15T17:36:03;6.77;;;4.10;;
18162;SDS011;9206;50.994;4.538;2024-01-15T17:38:53;4.37;;;3.60;;
18162;SDS011;9206;50.994;4.538;2024-01-15T17:41:51;7.83;;;3.40;;
18162;SDS011;9206;50.994;4.538;2024-01-15T17:50:19;5.33;;;2.90;;
18162;SDS011;9206;50.994;4.538;2024-01-15T17:53:08;4.33;;;2.40;;
18162;SDS011;9206;50.994;4.538;2024-01-15T17:55:56;7.37;;;2.40;;
18162;SDS011;9206;50.994;4.538;2024-01-15T17:58:45;5.03;;;2.90;;
18162;SDS011;9206;50.994;4.538;2024-01-15T18:04:50;2.33;;;2.13;;
18162;SDS011;9206;50.994;4.538;2024-01-15T18:07:38;6.73;;;2.33;;
18162;SDS011;9206;50.994;4.538;2024-01-15T18:13:34;5.50;;;2.50;;
18162;SDS011;9206;50.994;4.538;2024-01-15T18:16:29;5.20;;;2.40;;
18162;SDS011;9206;50.994;4.538;2024-01-15T18:19:20;5.10;;;2.70;;
18162;SDS011;9206;50.994;4.538;2024-01-15T18:22:14;2.57;;;2.30;;
18162;SDS011;9206;50.994;4.538;2024-01-15T18:28:09;7.80;;;3.73;;
18162;SDS011;9206;50.994;4.538;2024-01-15T18:31:00;4.00;;;2.63;;
18162;SDS011;9206;50.994;4.538;2024-01-15T18:36:43;8.03;;;2.93;;
18162;SDS011;9206;50.994;4.538;2024-01-15T18:39:33;3.63;;;2.90;;
18162;SDS011;9206;50.994;4.538;2024-01-15T18:42:20;6.93;;;3.50;;
18162;SDS011;9206;50.994;4.538;2024-01-15T18:45:16;5.10;;;3.90;;
18162;SDS011;9206;50.994;4.538;2024-01-15T18:48:04;6.00;;;4.00;;
18162;SDS011;9206;50.994;4.538;2024-01-15T18:50:55;8.10;;;5.43;;
18162;SDS011;9206;50.994;4.538;2024-01-15T18:53:43;7.37;;;5.23;;
18162;SDS011;9206;50.994;4.538;2024-01-15T18:56:33;9.40;;;5.97;;
18162;SDS011;9206;50.994;4.538;2024-01-15T18:59:26;9.30;;;6.30;;
18162;SDS011;9206;50.994;4.538;2024-01-15T19:02:17;13.37;;;7.80;;
18162;SDS011;9206;50.994;4.538;2024-01-15T19:05:06;13.03;;;7.63;;
18162;SDS011;9206;50.994;4.538;2024-01-15T19:07:53;14.30;;;8.47;;
18162;SDS011;9206;50.994;4.538;2024-01-15T19:11:05;16.53;;;8.30;;
18162;SDS011;9206;50.994;4.538;2024-01-15T19:17:00;15.13;;;8.30;;
18162;SDS011;9206;50.994;4.538;2024-01-15T19:19:53;14.33;;;8.27;;
18162;SDS011;9206;50.994;4.538;2024-01-15T19:22:54;12.50;;;8.03;;
18162;SDS011;9206;50.994;4.538;2024-01-15T19:27:18;16.73;;;7.80;;
18162;SDS011;9206;50.994;4.538;2024-01-15T19:37:40;13.97;;;7.03;;
18162;SDS011;9206;50.994;4.538;2024-01-15T19:44:32;20.33;;;7.20;;
18162;SDS011;9206;50.994;4.538;2024-01-15T19:53:55;14.13;;;6.83;;
18162;SDS011;9206;50.994;4.538;2024-01-15T19:55:39;16.07;;;4.97;;
18162;SDS011;9206;50.994;4.538;2024-01-15T19:59:11;11.13;;;4.90;;
18162;SDS011;9206;50.994;4.538;2024-01-15T20:02:13;9.43;;;4.77;;
18162;SDS011;9206;50.994;4.538;2024-01-15T20:05:09;7.63;;;4.13;;
18162;SDS011;9206;50.994;4.538;2024-01-15T20:11:11;11.90;;;4.30;;
18162;SDS011;9206;50.994;4.538;2024-01-15T20:14:01;7.63;;;3.97;;
18162;SDS011;9206;50.994;4.538;2024-01-15T20:17:01;7.07;;;4.07;;
18162;SDS011;9206;50.994;4.538;2024-01-15T20:21:25;11.17;;;4.67;;
18162;SDS011;9206;50.994;4.538;2024-01-15T20:24:22;11.10;;;4.33;;
18162;SDS011;9206;50.994;4.538;2024-01-15T20:27:13;10.37;;;4.40;;
18162;SDS011;9206;50.994;4.538;2024-01-15T20:33:02;11.53;;;4.70;;
18162;SDS011;9206;50.994;4.538;2024-01-15T20:35:53;10.53;;;4.50;;
18162;SDS011;9206;50.994;4.538;2024-01-15T20:39:06;10.40;;;4.87;;
18162;SDS011;9206;50.994;4.538;2024-01-15T20:45:51;14.73;;;4.17;;
18162;SDS011;9206;50.994;4.538;2024-01-15T20:48:46;12.93;;;4.87;;
18162;SDS011;9206;50.994;4.538;2024-01-15T20:51:36;10.83;;;3.70;;
18162;SDS011;9206;50.994;4.538;2024-01-15T20:54:34;8.27;;;4.33;;
18162;SDS011;9206;50.994;4.538;2024-01-15T20:57:22;10.57;;;4.00;;
18162;SDS011;9206;50.994;4.538;2024-01-15T21:00:28;11.73;;;4.33;;
18162;SDS011;9206;50.994;4.538;2024-01-15T21:06:08;10.03;;;4.30;;
18162;SDS011;9206;50.994;4.538;2024-01-15T21:14:35;5.90;;;3.70;;
18162;SDS011;9206;50.994;4.538;2024-01-15T21:17:38;13.07;;;3.80;;
18162;SDS011;9206;50.994;4.538;2024-01-15T21:31:04;11.13;;;4.00;;
18162;SDS011;9206;50.994;4.538;2024-01-15T21:34:01;10.13;;;4.33;;
18162;SDS011;9206;50.994;4.538;2024-01-15T21:40:25;10.40;;;3.97;;
18162;SDS011;9206;50.994;4.538;2024-01-15T21:46:22;8.43;;;4.30;;
18162;SDS011;9206;50.994;4.538;2024-01-15T21:49:13;15.37;;;3.80;;
18162;SDS011;9206;50.994;4.538;2024-01-15T21:55:12;7.67;;;3.50;;
18162;SDS011;9206;50.994;4.538;2024-01-15T21:58:07;11.53;;;4.07;;
18162;SDS011;9206;50.994;4.538;2024-01-15T22:08:11;11.23;;;3.70;;
18162;SDS011;9206;50.994;4.538;2024-01-15T22:11:05;6.63;;;3.40;;
18162;SDS011;9206;50.994;4.538;2024-01-15T22:13:52;8.33;;;3.40;;
18162;SDS011;9206;50.994;4.538;2024-01-15T23:15:01;10.43;;;3.40;;
18162;SDS011;9206;50.994;4.538;2024-01-15T23:18:07;6.83;;;4.23;;
18162;SDS011;9206;50.994;4.538;2024-01-15T23:22:41;6.10;;;4.10;;
18162;SDS011;9206;50.994;4.538;2024-01-15T23:24:54;7.77;;;4.17;;
18162;SDS011;9206;50.994;4.538;2024-01-15T23:27:45;6.33;;;4.30;;
18162;SDS011;9206;50.994;4.538;2024-01-15T23:30:43;8.67;;;4.10;;
18162;SDS011;9206;50.994;4.538;2024-01-15T23:33:35;14.30;;;4.40;;
18162;SDS011;9206;50.994;4.538;2024-01-15T23:36:42;7.37;;;4.67;;
18162;SDS011;9206;50.994;4.538;2024-01-15T23:39:36;6.33;;;3.40;;
18162;SDS011;9206;50.994;4.538;2024-01-15T23:42:52;7.03;;;3.97;;
18162;SDS011;9206;50.994;4.538;2024-01-15T23:49:37;6.33;;;3.30;;
18162;SDS011;9206;50.994;4.538;2024-01-15T23:56:26;7.10;;;4.27;;
